Badan Meteorologi, Klimatologi, dan Geofisika

CUACA TERKINI BANDARA KUALANAMU

Senin, 1 Maret 2021 15:03 UTC

Cuaca : Udara kabur

Angin : (dari) Barat Daya, 5.6 km/jam

Jarak Pandang : 4.5 km

Suhu : 26 °C

Waktu Pengamatan : 22:00 WIB

Selengkapnya>>>

DATA METEOROLOGI KUALANAMU

Data Metar Terbaru

WIMM 011500Z 24003KT 4500 HZ SCT017 26/24 Q1012 NOSIG=

WIMM 011430Z 21005KT 5000 HZ SCT017 26/24 Q1012 NOSIG=

WIMM 011400Z 23004KT 5000 HZ SCT017 26/24 Q1011 NOSIG=

WIMM 011330Z 23004KT 4500 HZ SCT017 26/24 Q1010 NOSIG=

WIMM 011300Z 22003KT 4500 HZ SCT017 27/24 Q1010 NOSIG=

WIMM 011230Z 23004KT 5000 HZ SCT017 28/23 Q1010 NOSIG=

TAF WIMM 011100Z 0112/0212 24003KT 5000 HZ SCT017 BECMG 0202/0204 35006KT 9999 =

Selengkapnya>>>

Data TAF Terbaru

TAF WIMM 011100Z 0112/0212 24003KT 5000 HZ SCT017 BECMG 0202/0204 35006KT 9999 =

Selengkapnya>>>

CITRA SATELIT

Enhanced
Citra Satelit
Cloud Type
Citra Satelit IR
Hotspot
Citra Satelit
Sebaran Asap
Citra Satelit